sensor_id;sensor_type;location;lat;lon;timestamp;temperature;humidity
9125;DHT22;4597;48.730;9.114;2023-02-28T00:00:48;-1.20;99.90
9125;DHT22;4597;48.730;9.114;2023-02-28T00:03:13;-1.20;99.90
9125;DHT22;4597;48.730;9.114;2023-02-28T00:05:39;-1.20;99.90
9125;DHT22;4597;48.730;9.114;2023-02-28T00:08:04;-1.20;99.90
9125;DHT22;4597;48.730;9.114;2023-02-28T00:10:31;-1.30;99.90
9125;DHT22;4597;48.730;9.114;2023-02-28T00:13:04;-1.20;99.90
9125;DHT22;4597;48.730;9.114;2023-02-28T00:15:31;-1.30;99.90
9125;DHT22;4597;48.730;9.114;2023-02-28T00:17:57;-1.30;99.90
9125;DHT22;4597;48.730;9.114;2023-02-28T00:20:22;-1.20;99.90
9125;DHT22;4597;48.730;9.114;2023-02-28T00:22:51;-1.30;99.90
9125;DHT22;4597;48.730;9.114;2023-02-28T00:25:25;-1.30;99.90
9125;DHT22;4597;48.730;9.114;2023-02-28T00:27:51;-1.20;99.90
9125;DHT22;4597;48.730;9.114;2023-02-28T00:30:22;-1.30;99.90
9125;DHT22;4597;48.730;9.114;2023-02-28T00:32:48;-1.30;99.90
9125;DHT22;4597;48.730;9.114;2023-02-28T00:35:14;-1.30;99.90
9125;DHT22;4597;48.730;9.114;2023-02-28T00:37:40;-1.40;99.90
9125;DHT22;4597;48.730;9.114;2023-02-28T00:40:06;-1.40;99.90
9125;DHT22;4597;48.730;9.114;2023-02-28T00:42:33;-1.40;99.90
9125;DHT22;4597;48.730;9.114;2023-02-28T00:44:58;-1.40;99.90
9125;DHT22;4597;48.730;9.114;2023-02-28T00:47:24;-1.40;99.90
9125;DHT22;4597;48.730;9.114;2023-02-28T00:49:49;-1.40;99.90
9125;DHT22;4597;48.730;9.114;2023-02-28T00:52:15;-1.50;99.90
9125;DHT22;4597;48.730;9.114;2023-02-28T00:54:40;-1.50;99.90
9125;DHT22;4597;48.730;9.114;2023-02-28T00:57:06;-1.50;99.90
9125;DHT22;4597;48.730;9.114;2023-02-28T00:59:31;-1.60;99.90
9125;DHT22;4597;48.730;9.114;2023-02-28T01:01:57;-1.60;99.90
9125;DHT22;4597;48.730;9.114;2023-02-28T01:04:22;-1.60;99.90
9125;DHT22;4597;48.730;9.114;2023-02-28T01:06:48;-1.60;99.90
9125;DHT22;4597;48.730;9.114;2023-02-28T01:09:13;-1.60;99.90
9125;DHT22;4597;48.730;9.114;2023-02-28T01:11:40;-1.60;99.90
9125;DHT22;4597;48.730;9.114;2023-02-28T01:14:06;-1.60;99.90
9125;DHT22;4597;48.730;9.114;2023-02-28T01:16:32;-1.60;99.90
9125;DHT22;4597;48.730;9.114;2023-02-28T01:18:57;-1.60;99.90
9125;DHT22;4597;48.730;9.114;2023-02-28T01:21:23;-1.60;99.90
9125;DHT22;4597;48.730;9.114;2023-02-28T01:23:50;-1.70;99.90
9125;DHT22;4597;48.730;9.114;2023-02-28T01:26:19;-1.70;99.90
9125;DHT22;4597;48.730;9.114;2023-02-28T01:28:46;-1.70;99.90
9125;DHT22;4597;48.730;9.114;2023-02-28T01:31:12;-1.70;99.90
9125;DHT22;4597;48.730;9.114;2023-02-28T01:33:38;-1.70;99.90
9125;DHT22;4597;48.730;9.114;2023-02-28T01:36:10;-1.70;99.90
9125;DHT22;4597;48.730;9.114;2023-02-28T01:38:36;-1.80;99.90
9125;DHT22;4597;48.730;9.114;2023-02-28T01:41:02;-1.80;99.90
9125;DHT22;4597;48.730;9.114;2023-02-28T01:43:30;-1.80;99.90
9125;DHT22;4597;48.730;9.114;2023-02-28T01:45:57;-1.80;99.90
9125;DHT22;4597;48.730;9.114;2023-02-28T01:48:29;-1.80;99.90
9125;DHT22;4597;48.730;9.114;2023-02-28T01:50:59;-1.80;99.90
9125;DHT22;4597;48.730;9.114;2023-02-28T01:53:32;-1.80;99.90
9125;DHT22;4597;48.730;9.114;2023-02-28T01:55:59;-1.80;99.90
9125;DHT22;4597;48.730;9.114;2023-02-28T01:58:25;-1.80;99.90
9125;DHT22;4597;48.730;9.114;2023-02-28T02:00:51;-1.80;99.90
9125;DHT22;4597;48.730;9.114;2023-02-28T02:03:18;-1.90;99.90
9125;DHT22;4597;48.730;9.114;2023-02-28T02:05:45;-1.90;99.90
9125;DHT22;4597;48.730;9.114;2023-02-28T02:08:17;-1.90;99.90
9125;DHT22;4597;48.730;9.114;2023-02-28T02:10:44;-1.90;99.90
9125;DHT22;4597;48.730;9.114;2023-02-28T02:13:22;-1.90;99.90
9125;DHT22;4597;48.730;9.114;2023-02-28T02:24:49;-1.80;99.90
9125;DHT22;4597;48.730;9.114;2023-02-28T02:27:20;-1.70;99.90
9125;DHT22;4597;48.730;9.114;2023-02-28T02:38:28;-1.50;99.90
9125;DHT22;4597;48.730;9.114;2023-02-28T02:44:10;-1.50;99.90
9125;DHT22;4597;48.730;9.114;2023-02-28T02:46:39;-1.40;99.90
9125;DHT22;4597;48.730;9.114;2023-02-28T02:49:24;-1.40;99.90
9125;DHT22;4597;48.730;9.114;2023-02-28T02:51:52;-1.40;99.90
9125;DHT22;4597;48.730;9.114;2023-02-28T02:54:25;-1.40;99.90
9125;DHT22;4597;48.730;9.114;2023-02-28T02:56:55;-1.40;99.90
9125;DHT22;4597;48.730;9.114;2023-02-28T02:59:23;-1.40;99.90
9125;DHT22;4597;48.730;9.114;2023-02-28T03:01:56;-1.40;99.90
9125;DHT22;4597;48.730;9.114;2023-02-28T03:04:24;-1.40;99.90
9125;DHT22;4597;48.730;9.114;2023-02-28T03:06:52;-1.40;99.90
9125;DHT22;4597;48.730;9.114;2023-02-28T03:09:21;-1.50;99.90
9125;DHT22;4597;48.730;9.114;2023-02-28T03:11:48;-1.50;99.90
9125;DHT22;4597;48.730;9.114;2023-02-28T03:17:49;-1.50;99.90
9125;DHT22;4597;48.730;9.114;2023-02-28T03:20:48;-1.50;99.90
9125;DHT22;4597;48.730;9.114;2023-02-28T03:23:23;-1.50;99.90
9125;DHT22;4597;48.730;9.114;2023-02-28T03:25:56;-1.50;99.90
9125;DHT22;4597;48.730;9.114;2023-02-28T03:31:32;-1.50;99.90
9125;DHT22;4597;48.730;9.114;2023-02-28T03:34:24;-1.50;99.90
9125;DHT22;4597;48.730;9.114;2023-02-28T03:36:55;-1.40;99.90
9125;DHT22;4597;48.730;9.114;2023-02-28T03:39:47;-1.30;99.90
9125;DHT22;4597;48.730;9.114;2023-02-28T03:42:24;-1.30;99.90
9125;DHT22;4597;48.730;9.114;2023-02-28T03:44:54;-1.30;99.90
9125;DHT22;4597;48.730;9.114;2023-02-28T03:47:36;-1.30;99.90
9125;DHT22;4597;48.730;9.114;2023-02-28T03:50:08;-1.20;99.90
9125;DHT22;4597;48.730;9.114;2023-02-28T03:52:45;-1.20;99.90
9125;DHT22;4597;48.730;9.114;2023-02-28T03:55:13;-1.30;99.90
9125;DHT22;4597;48.730;9.114;2023-02-28T03:58:05;-1.30;99.90
9125;DHT22;4597;48.730;9.114;2023-02-28T04:00:37;-1.20;99.90
9125;DHT22;4597;48.730;9.114;2023-02-28T04:03:04;-1.20;99.90
9125;DHT22;4597;48.730;9.114;2023-02-28T04:05:30;-1.20;99.90
9125;DHT22;4597;48.730;9.114;2023-02-28T04:08:06;-1.20;99.90
9125;DHT22;4597;48.730;9.114;2023-02-28T04:10:32;-1.20;99.90
9125;DHT22;4597;48.730;9.114;2023-02-28T04:12:58;-1.20;99.90
9125;DHT22;4597;48.730;9.114;2023-02-28T04:15:23;-1.10;99.90
9125;DHT22;4597;48.730;9.114;2023-02-28T04:17:50;-1.10;99.90
9125;DHT22;4597;48.730;9.114;2023-02-28T04:20:15;-1.10;99.90
9125;DHT22;4597;48.730;9.114;2023-02-28T04:22:41;-1.10;99.90
9125;DHT22;4597;48.730;9.114;2023-02-28T04:25:07;-1.10;99.90
9125;DHT22;4597;48.730;9.114;2023-02-28T04:27:33;-1.10;99.90
9125;DHT22;4597;48.730;9.114;2023-02-28T04:29:58;-1.10;99.90
9125;DHT22;4597;48.730;9.114;2023-02-28T04:32:24;-1.10;99.90
9125;DHT22;4597;48.730;9.114;2023-02-28T04:34:49;-1.10;99.90
9125;DHT22;4597;48.730;9.114;2023-02-28T04:37:15;-1.00;99.90
9125;DHT22;4597;48.730;9.114;2023-02-28T04:39:41;-1.00;99.90
9125;DHT22;4597;48.730;9.114;2023-02-28T04:42:07;-1.00;99.90
9125;DHT22;4597;48.730;9.114;2023-02-28T04:44:33;-1.00;99.90
9125;DHT22;4597;48.730;9.114;2023-02-28T04:46:59;-0.90;99.90
9125;DHT22;4597;48.730;9.114;2023-02-28T04:49:24;-0.90;99.90
9125;DHT22;4597;48.730;9.114;2023-02-28T04:51:50;-0.90;99.90
9125;DHT22;4597;48.730;9.114;2023-02-28T04:54:15;-0.90;99.90
9125;DHT22;4597;48.730;9.114;2023-02-28T04:56:43;-0.90;99.90
9125;DHT22;4597;48.730;9.114;2023-02-28T04:59:08;-0.80;99.90
9125;DHT22;4597;48.730;9.114;2023-02-28T05:01:34;-0.80;99.90
9125;DHT22;4597;48.730;9.114;2023-02-28T05:04:01;-0.80;99.90
9125;DHT22;4597;48.730;9.114;2023-02-28T05:06:29;-0.90;99.90
9125;DHT22;4597;48.730;9.114;2023-02-28T05:08:55;-0.80;99.90
9125;DHT22;4597;48.730;9.114;2023-02-28T05:11:27;-0.80;99.90
9125;DHT22;4597;48.730;9.114;2023-02-28T05:13:54;-0.80;99.90
9125;DHT22;4597;48.730;9.114;2023-02-28T05:16:20;-0.90;99.90
9125;DHT22;4597;48.730;9.114;2023-02-28T05:18:46;-0.80;99.90
9125;DHT22;4597;48.730;9.114;2023-02-28T05:21:23;-0.80;99.90
9125;DHT22;4597;48.730;9.114;2023-02-28T05:23:49;-0.80;99.90
9125;DHT22;4597;48.730;9.114;2023-02-28T05:26:15;-0.80;99.90
9125;DHT22;4597;48.730;9.114;2023-02-28T05:28:40;-0.70;99.90
9125;DHT22;4597;48.730;9.114;2023-02-28T05:31:06;-0.70;99.90
9125;DHT22;4597;48.730;9.114;2023-02-28T05:33:31;-0.70;99.90
9125;DHT22;4597;48.730;9.114;2023-02-28T05:35:56;-0.70;99.90
9125;DHT22;4597;48.730;9.114;2023-02-28T05:38:22;-0.70;99.90
9125;DHT22;4597;48.730;9.114;2023-02-28T05:40:47;-0.70;99.90
9125;DHT22;4597;48.730;9.114;2023-02-28T05:43:13;-0.70;99.90
9125;DHT22;4597;48.730;9.114;2023-02-28T05:45:39;-0.70;99.90
9125;DHT22;4597;48.730;9.114;2023-02-28T05:48:04;-0.70;99.90
9125;DHT22;4597;48.730;9.114;2023-02-28T05:50:30;-0.60;99.90
9125;DHT22;4597;48.730;9.114;2023-02-28T05:52:55;-0.60;99.90
9125;DHT22;4597;48.730;9.114;2023-02-28T05:55:21;-0.60;99.90
9125;DHT22;4597;48.730;9.114;2023-02-28T05:57:46;-0.70;99.90
9125;DHT22;4597;48.730;9.114;2023-02-28T06:00:12;-0.60;99.90
9125;DHT22;4597;48.730;9.114;2023-02-28T06:02:40;-0.60;99.90
9125;DHT22;4597;48.730;9.114;2023-02-28T06:05:09;-0.50;99.90
9125;DHT22;4597;48.730;9.114;2023-02-28T06:07:36;-0.50;99.90
9125;DHT22;4597;48.730;9.114;2023-02-28T06:10:01;-0.60;99.90
9125;DHT22;4597;48.730;9.114;2023-02-28T06:12:27;-0.60;99.90
9125;DHT22;4597;48.730;9.114;2023-02-28T06:14:52;-0.60;99.90
9125;DHT22;4597;48.730;9.114;2023-02-28T06:17:18;-0.50;99.90
9125;DHT22;4597;48.730;9.114;2023-02-28T06:19:43;-0.50;99.90
9125;DHT22;4597;48.730;9.114;2023-02-28T06:22:09;-0.50;99.90
9125;DHT22;4597;48.730;9.114;2023-02-28T06:24:34;-0.50;99.90
9125;DHT22;4597;48.730;9.114;2023-02-28T06:27:00;-0.40;99.90
9125;DHT22;4597;48.730;9.114;2023-02-28T06:29:31;-0.30;99.90
9125;DHT22;4597;48.730;9.114;2023-02-28T06:31:57;-0.40;99.90
9125;DHT22;4597;48.730;9.114;2023-02-28T06:34:22;-0.40;99.90
9125;DHT22;4597;48.730;9.114;2023-02-28T06:36:51;-0.30;99.90
9125;DHT22;4597;48.730;9.114;2023-02-28T06:39:16;-0.30;99.90
9125;DHT22;4597;48.730;9.114;2023-02-28T06:41:42;-0.30;99.90
9125;DHT22;4597;48.730;9.114;2023-02-28T06:44:16;-0.30;99.90
9125;DHT22;4597;48.730;9.114;2023-02-28T06:46:43;-0.30;99.90
9125;DHT22;4597;48.730;9.114;2023-02-28T06:49:09;-0.20;99.90
9125;DHT22;4597;48.730;9.114;2023-02-28T06:51:36;-0.20;99.90
9125;DHT22;4597;48.730;9.114;2023-02-28T06:54:02;-0.30;99.90
9125;DHT22;4597;48.730;9.114;2023-02-28T06:56:28;-0.20;99.90
9125;DHT22;4597;48.730;9.114;2023-02-28T06:58:54;-0.30;99.90
9125;DHT22;4597;48.730;9.114;2023-02-28T07:01:20;-0.20;99.90
9125;DHT22;4597;48.730;9.114;2023-02-28T07:03:46;-0.20;99.90
9125;DHT22;4597;48.730;9.114;2023-02-28T07:06:12;-0.10;99.90
9125;DHT22;4597;48.730;9.114;2023-02-28T07:08:38;-0.10;99.90
9125;DHT22;4597;48.730;9.114;2023-02-28T07:11:05;-0.10;99.90
9125;DHT22;4597;48.730;9.114;2023-02-28T07:13:31;-0.10;99.90
9125;DHT22;4597;48.730;9.114;2023-02-28T07:16:02;-0.10;99.90
9125;DHT22;4597;48.730;9.114;2023-02-28T07:18:28;-0.10;99.90
9125;DHT22;4597;48.730;9.114;2023-02-28T07:20:54;-0.10;99.90
9125;DHT22;4597;48.730;9.114;2023-02-28T07:23:20;0.00;99.90
9125;DHT22;4597;48.730;9.114;2023-02-28T07:25:46;0.10;99.90
9125;DHT22;4597;48.730;9.114;2023-02-28T07:28:13;0.00;99.90
9125;DHT22;4597;48.730;9.114;2023-02-28T07:30:39;0.00;99.90
9125;DHT22;4597;48.730;9.114;2023-02-28T07:33:04;0.10;99.90
9125;DHT22;4597;48.730;9.114;2023-02-28T07:35:31;0.20;99.90
9125;DHT22;4597;48.730;9.114;2023-02-28T07:37:58;0.30;99.90
9125;DHT22;4597;48.730;9.114;2023-02-28T07:40:24;0.30;99.90
9125;DHT22;4597;48.730;9.114;2023-02-28T07:42:49;0.40;99.90
9125;DHT22;4597;48.730;9.114;2023-02-28T07:45:15;0.50;99.90
9125;DHT22;4597;48.730;9.114;2023-02-28T07:47:42;0.60;99.90
9125;DHT22;4597;48.730;9.114;2023-02-28T07:50:10;0.50;99.90
9125;DHT22;4597;48.730;9.114;2023-02-28T07:52:37;0.60;99.90
9125;DHT22;4597;48.730;9.114;2023-02-28T07:55:04;0.60;99.90
9125;DHT22;4597;48.730;9.114;2023-02-28T07:57:30;0.70;99.90
9125;DHT22;4597;48.730;9.114;2023-02-28T07:59:55;0.80;99.90
9125;DHT22;4597;48.730;9.114;2023-02-28T08:02:21;0.90;99.90
9125;DHT22;4597;48.730;9.114;2023-02-28T08:04:46;0.90;99.90
9125;DHT22;4597;48.730;9.114;2023-02-28T08:07:13;1.00;99.90
9125;DHT22;4597;48.730;9.114;2023-02-28T08:09:40;1.00;99.90
9125;DHT22;4597;48.730;9.114;2023-02-28T08:12:07;1.00;99.90
9125;DHT22;4597;48.730;9.114;2023-02-28T08:14:33;1.00;99.90
9125;DHT22;4597;48.730;9.114;2023-02-28T08:16:59;0.90;99.90
9125;DHT22;4597;48.730;9.114;2023-02-28T08:19:25;0.90;99.90
9125;DHT22;4597;48.730;9.114;2023-02-28T08:21:50;0.90;99.90
9125;DHT22;4597;48.730;9.114;2023-02-28T08:24:15;1.00;99.90
9125;DHT22;4597;48.730;9.114;2023-02-28T08:26:41;1.00;99.90
9125;DHT22;4597;48.730;9.114;2023-02-28T08:29:06;1.10;99.90
9125;DHT22;4597;48.730;9.114;2023-02-28T08:31:32;1.20;99.90
9125;DHT22;4597;48.730;9.114;2023-02-28T08:33:58;1.20;99.90
9125;DHT22;4597;48.730;9.114;2023-02-28T08:36:25;1.20;99.90
9125;DHT22;4597;48.730;9.114;2023-02-28T08:38:51;1.30;99.90
9125;DHT22;4597;48.730;9.114;2023-02-28T08:41:16;1.30;99.90
9125;DHT22;4597;48.730;9.114;2023-02-28T08:43:42;1.40;99.90
9125;DHT22;4597;48.730;9.114;2023-02-28T08:46:11;1.50;99.90
9125;DHT22;4597;48.730;9.114;2023-02-28T08:48:37;1.50;99.90
9125;DHT22;4597;48.730;9.114;2023-02-28T08:51:11;1.50;99.90
9125;DHT22;4597;48.730;9.114;2023-02-28T08:53:38;1.50;99.90
9125;DHT22;4597;48.730;9.114;2023-02-28T08:56:12;1.60;99.90
9125;DHT22;4597;48.730;9.114;2023-02-28T08:58:39;1.60;99.90
9125;DHT22;4597;48.730;9.114;2023-02-28T09:01:20;1.70;99.90
9125;DHT22;4597;48.730;9.114;2023-02-28T09:03:49;1.80;99.90
9125;DHT22;4597;48.730;9.114;2023-02-28T09:06:16;1.80;99.90
9125;DHT22;4597;48.730;9.114;2023-02-28T09:08:43;1.90;99.90
9125;DHT22;4597;48.730;9.114;2023-02-28T09:11:09;1.90;99.90
9125;DHT22;4597;48.730;9.114;2023-02-28T09:13:35;1.90;99.90
9125;DHT22;4597;48.730;9.114;2023-02-28T09:16:03;1.90;99.90
9125;DHT22;4597;48.730;9.114;2023-02-28T09:18:28;2.00;99.90
9125;DHT22;4597;48.730;9.114;2023-02-28T09:20:54;2.20;99.90
9125;DHT22;4597;48.730;9.114;2023-02-28T09:23:20;2.30;99.90
9125;DHT22;4597;48.730;9.114;2023-02-28T09:25:51;2.50;99.90
9125;DHT22;4597;48.730;9.114;2023-02-28T09:28:17;2.60;99.90
9125;DHT22;4597;48.730;9.114;2023-02-28T09:30:48;2.70;99.90
9125;DHT22;4597;48.730;9.114;2023-02-28T09:33:14;2.80;99.90
9125;DHT22;4597;48.730;9.114;2023-02-28T09:35:40;2.90;99.90
9125;DHT22;4597;48.730;9.114;2023-02-28T09:38:06;3.10;99.90
9125;DHT22;4597;48.730;9.114;2023-02-28T09:40:36;3.10;99.90
9125;DHT22;4597;48.730;9.114;2023-02-28T09:43:02;3.20;99.90
9125;DHT22;4597;48.730;9.114;2023-02-28T09:45:30;3.20;99.90
9125;DHT22;4597;48.730;9.114;2023-02-28T09:48:01;3.20;99.30
9125;DHT22;4597;48.730;9.114;2023-02-28T09:50:39;3.20;99.00
9125;DHT22;4597;48.730;9.114;2023-02-28T09:53:25;3.30;98.50
9125;DHT22;4597;48.730;9.114;2023-02-28T09:55:55;3.30;98.20
9125;DHT22;4597;48.730;9.114;2023-02-28T09:58:49;3.40;97.10
9125;DHT22;4597;48.730;9.114;2023-02-28T10:01:35;3.40;96.80
9125;DHT22;4597;48.730;9.114;2023-02-28T10:06:51;3.50;95.10
9125;DHT22;4597;48.730;9.114;2023-02-28T10:09:26;3.30;95.40
9125;DHT22;4597;48.730;9.114;2023-02-28T10:11:59;3.40;95.60
9125;DHT22;4597;48.730;9.114;2023-02-28T10:14:27;3.50;95.20
9125;DHT22;4597;48.730;9.114;2023-02-28T10:20:02;3.70;94.70
9125;DHT22;4597;48.730;9.114;2023-02-28T10:25:44;3.80;93.20
9125;DHT22;4597;48.730;9.114;2023-02-28T10:28:15;3.90;93.30
9125;DHT22;4597;48.730;9.114;2023-02-28T10:30:49;4.10;93.00
9125;DHT22;4597;48.730;9.114;2023-02-28T10:35:53;4.10;91.00
9125;DHT22;4597;48.730;9.114;2023-02-28T10:38:25;4.20;90.50
9125;DHT22;4597;48.730;9.114;2023-02-28T10:40:51;4.20;90.20
9125;DHT22;4597;48.730;9.114;2023-02-28T10:45:58;4.40;89.60
9125;DHT22;4597;48.730;9.114;2023-02-28T10:48:33;4.50;88.10
9125;DHT22;4597;48.730;9.114;2023-02-28T10:51:00;4.70;87.80
9125;DHT22;4597;48.730;9.114;2023-02-28T10:53:50;4.70;84.90
9125;DHT22;4597;48.730;9.114;2023-02-28T10:56:18;4.60;85.90
9125;DHT22;4597;48.730;9.114;2023-02-28T10:59:28;4.70;84.80
9125;DHT22;4597;48.730;9.114;2023-02-28T11:01:54;4.80;83.00
9125;DHT22;4597;48.730;9.114;2023-02-28T11:04:31;4.70;82.10
9125;DHT22;4597;48.730;9.114;2023-02-28T11:07:21;4.70;82.20
9125;DHT22;4597;48.730;9.114;2023-02-28T11:09:52;4.80;82.80
9125;DHT22;4597;48.730;9.114;2023-02-28T11:12:37;4.80;82.20
9125;DHT22;4597;48.730;9.114;2023-02-28T11:20:37;5.30;81.70
9125;DHT22;4597;48.730;9.114;2023-02-28T11:23:04;5.40;80.40
9125;DHT22;4597;48.730;9.114;2023-02-28T11:25:32;5.30;78.20
9125;DHT22;4597;48.730;9.114;2023-02-28T11:28:01;5.30;79.00
9125;DHT22;4597;48.730;9.114;2023-02-28T11:30:40;5.30;78.00
9125;DHT22;4597;48.730;9.114;2023-02-28T11:36:30;5.20;77.30
9125;DHT22;4597;48.730;9.114;2023-02-28T11:39:01;5.20;76.40
9125;DHT22;4597;48.730;9.114;2023-02-28T11:41:36;5.30;75.90
9125;DHT22;4597;48.730;9.114;2023-02-28T11:44:43;5.30;76.20
9125;DHT22;4597;48.730;9.114;2023-02-28T11:53:14;5.20;74.30
9125;DHT22;4597;48.730;9.114;2023-02-28T11:55:46;5.20;74.10
9125;DHT22;4597;48.730;9.114;2023-02-28T11:58:44;5.30;73.50
9125;DHT22;4597;48.730;9.114;2023-02-28T12:01:33;5.30;73.60
9125;DHT22;4597;48.730;9.114;2023-02-28T12:04:25;5.50;74.60
9125;DHT22;4597;48.730;9.114;2023-02-28T12:07:29;5.70;73.80
9125;DHT22;4597;48.730;9.114;2023-02-28T12:13:08;6.10;73.00
9125;DHT22;4597;48.730;9.114;2023-02-28T12:21:20;6.80;68.80
9125;DHT22;4597;48.730;9.114;2023-02-28T12:26:39;7.00;65.00
9125;DHT22;4597;48.730;9.114;2023-02-28T12:29:26;7.10;62.90
9125;DHT22;4597;48.730;9.114;2023-02-28T12:34:35;6.80;60.70
9125;DHT22;4597;48.730;9.114;2023-02-28T12:37:07;6.60;62.90
9125;DHT22;4597;48.730;9.114;2023-02-28T12:39:39;6.70;64.90
9125;DHT22;4597;48.730;9.114;2023-02-28T12:42:30;6.80;61.60
9125;DHT22;4597;48.730;9.114;2023-02-28T12:44:59;6.80;63.60
9125;DHT22;4597;48.730;9.114;2023-02-28T12:47:27;7.00;63.90
9125;DHT22;4597;48.730;9.114;2023-02-28T12:49:58;7.00;61.30
9125;DHT22;4597;48.730;9.114;2023-02-28T12:58:29;7.10;61.20
9125;DHT22;4597;48.730;9.114;2023-02-28T13:09:18;7.00;60.60
9125;DHT22;4597;48.730;9.114;2023-02-28T13:11:46;7.00;60.10
9125;DHT22;4597;48.730;9.114;2023-02-28T13:14:25;7.00;59.50
9125;DHT22;4597;48.730;9.114;2023-02-28T13:17:11;7.10;60.60
9125;DHT22;4597;48.730;9.114;2023-02-28T13:22:04;7.20;60.00
9125;DHT22;4597;48.730;9.114;2023-02-28T13:29:43;7.90;59.00
9125;DHT22;4597;48.730;9.114;2023-02-28T13:47:33;8.60;56.00
9125;DHT22;4597;48.730;9.114;2023-02-28T13:52:52;8.50;53.50
9125;DHT22;4597;48.730;9.114;2023-02-28T13:55:28;8.70;53.60
9125;DHT22;4597;48.730;9.114;2023-02-28T14:06:35;8.60;52.20
9125;DHT22;4597;48.730;9.114;2023-02-28T14:11:40;9.00;50.00
9125;DHT22;4597;48.730;9.114;2023-02-28T14:14:08;9.00;49.80
9125;DHT22;4597;48.730;9.114;2023-02-28T14:16:44;9.20;50.30
9125;DHT22;4597;48.730;9.114;2023-02-28T14:19:20;9.40;50.50
9125;DHT22;4597;48.730;9.114;2023-02-28T14:27:57;9.20;49.70
9125;DHT22;4597;48.730;9.114;2023-02-28T14:30:49;9.40;50.30
9125;DHT22;4597;48.730;9.114;2023-02-28T14:38:52;9.80;48.70
9125;DHT22;4597;48.730;9.114;2023-02-28T14:41:40;9.90;47.50
9125;DHT22;4597;48.730;9.114;2023-02-28T14:44:21;10.00;46.90
9125;DHT22;4597;48.730;9.114;2023-02-28T14:46:56;10.00;46.00
9125;DHT22;4597;48.730;9.114;2023-02-28T14:49:37;10.20;46.20
9125;DHT22;4597;48.730;9.114;2023-02-28T14:54:37;10.40;44.20
9125;DHT22;4597;48.730;9.114;2023-02-28T14:57:02;10.50;44.50
9125;DHT22;4597;48.730;9.114;2023-02-28T14:59:31;10.50;43.70
9125;DHT22;4597;48.730;9.114;2023-02-28T15:02:16;10.70;44.60
9125;DHT22;4597;48.730;9.114;2023-02-28T15:04:42;10.80;43.50
9125;DHT22;4597;48.730;9.114;2023-02-28T15:07:14;11.10;42.80
9125;DHT22;4597;48.730;9.114;2023-02-28T15:09:40;11.30;42.30
9125;DHT22;4597;48.730;9.114;2023-02-28T15:12:06;11.50;41.00
9125;DHT22;4597;48.730;9.114;2023-02-28T15:14:32;11.50;40.60
9125;DHT22;4597;48.730;9.114;2023-02-28T15:17:03;11.40;40.00
9125;DHT22;4597;48.730;9.114;2023-02-28T15:19:34;11.70;40.60
9125;DHT22;4597;48.730;9.114;2023-02-28T15:22:06;11.70;40.20
9125;DHT22;4597;48.730;9.114;2023-02-28T15:24:39;11.30;39.80
9125;DHT22;4597;48.730;9.114;2023-02-28T15:27:29;11.40;39.70
9125;DHT22;4597;48.730;9.114;2023-02-28T15:30:00;11.20;39.70
9125;DHT22;4597;48.730;9.114;2023-02-28T15:32:27;10.70;40.50
9125;DHT22;4597;48.730;9.114;2023-02-28T15:34:54;10.60;41.00
9125;DHT22;4597;48.730;9.114;2023-02-28T15:39:52;10.80;40.70
9125;DHT22;4597;48.730;9.114;2023-02-28T15:42:21;10.50;40.60
9125;DHT22;4597;48.730;9.114;2023-02-28T15:44:46;10.50;41.10
9125;DHT22;4597;48.730;9.114;2023-02-28T15:47:20;10.50;41.20
9125;DHT22;4597;48.730;9.114;2023-02-28T15:49:50;10.60;41.30
9125;DHT22;4597;48.730;9.114;2023-02-28T15:55:28;11.70;39.60
9125;DHT22;4597;48.730;9.114;2023-02-28T15:57:55;11.70;37.80
9125;DHT22;4597;48.730;9.114;2023-02-28T16:00:27;11.70;37.90
9125;DHT22;4597;48.730;9.114;2023-02-28T16:02:52;11.90;37.70
9125;DHT22;4597;48.730;9.114;2023-02-28T16:05:29;12.20;37.60
9125;DHT22;4597;48.730;9.114;2023-02-28T16:08:11;12.50;36.40
9125;DHT22;4597;48.730;9.114;2023-02-28T16:10:37;12.80;36.20
9125;DHT22;4597;48.730;9.114;2023-02-28T16:13:03;13.20;35.30
9125;DHT22;4597;48.730;9.114;2023-02-28T16:15:32;13.30;34.80
9125;DHT22;4597;48.730;9.114;2023-02-28T16:18:00;13.10;33.90
9125;DHT22;4597;48.730;9.114;2023-02-28T16:20:28;12.50;33.60
9125;DHT22;4597;48.730;9.114;2023-02-28T16:22:54;11.90;34.80
9125;DHT22;4597;48.730;9.114;2023-02-28T16:25:23;11.00;36.40
9125;DHT22;4597;48.730;9.114;2023-02-28T16:27:52;10.50;38.00
9125;DHT22;4597;48.730;9.114;2023-02-28T16:30:27;9.90;39.40
9125;DHT22;4597;48.730;9.114;2023-02-28T16:32:54;9.60;40.90
9125;DHT22;4597;48.730;9.114;2023-02-28T16:35:21;9.10;41.50
9125;DHT22;4597;48.730;9.114;2023-02-28T16:37:46;8.70;42.00
9125;DHT22;4597;48.730;9.114;2023-02-28T16:40:20;8.50;43.20
9125;DHT22;4597;48.730;9.114;2023-02-28T16:42:49;8.40;43.60
9125;DHT22;4597;48.730;9.114;2023-02-28T16:45:17;8.50;43.70
9125;DHT22;4597;48.730;9.114;2023-02-28T16:47:44;8.60;43.40
9125;DHT22;4597;48.730;9.114;2023-02-28T16:50:21;8.50;43.60
9125;DHT22;4597;48.730;9.114;2023-02-28T16:52:47;8.10;44.00
9125;DHT22;4597;48.730;9.114;2023-02-28T16:55:15;7.90;44.70
9125;DHT22;4597;48.730;9.114;2023-02-28T16:57:41;7.60;45.20
9125;DHT22;4597;48.730;9.114;2023-02-28T17:00:08;7.10;46.50
9125;DHT22;4597;48.730;9.114;2023-02-28T17:02:37;6.90;46.70
9125;DHT22;4597;48.730;9.114;2023-02-28T17:05:03;6.70;47.60
9125;DHT22;4597;48.730;9.114;2023-02-28T17:07:29;6.30;48.50
9125;DHT22;4597;48.730;9.114;2023-02-28T17:09:54;6.10;49.40
9125;DHT22;4597;48.730;9.114;2023-02-28T17:12:20;5.90;49.80
9125;DHT22;4597;48.730;9.114;2023-02-28T17:14:45;5.70;50.80
9125;DHT22;4597;48.730;9.114;2023-02-28T17:17:21;5.60;51.70
9125;DHT22;4597;48.730;9.114;2023-02-28T17:19:47;5.50;51.90
9125;DHT22;4597;48.730;9.114;2023-02-28T17:22:13;5.30;52.60
9125;DHT22;4597;48.730;9.114;2023-02-28T17:24:39;5.20;53.10
9125;DHT22;4597;48.730;9.114;2023-02-28T17:27:04;5.00;53.80
9125;DHT22;4597;48.730;9.114;2023-02-28T17:29:30;4.90;54.30
9125;DHT22;4597;48.730;9.114;2023-02-28T17:31:56;4.80;54.90
9125;DHT22;4597;48.730;9.114;2023-02-28T17:34:21;4.70;56.10
9125;DHT22;4597;48.730;9.114;2023-02-28T17:36:49;4.70;56.60
9125;DHT22;4597;48.730;9.114;2023-02-28T17:39:16;4.60;57.30
9125;DHT22;4597;48.730;9.114;2023-02-28T17:41:49;4.50;58.20
9125;DHT22;4597;48.730;9.114;2023-02-28T17:44:15;4.40;58.20
9125;DHT22;4597;48.730;9.114;2023-02-28T17:46:41;4.30;58.70
9125;DHT22;4597;48.730;9.114;2023-02-28T17:49:08;4.20;59.30
9125;DHT22;4597;48.730;9.114;2023-02-28T17:51:34;4.20;60.10
9125;DHT22;4597;48.730;9.114;2023-02-28T17:54:00;4.00;61.30
9125;DHT22;4597;48.730;9.114;2023-02-28T17:56:26;3.90;62.40
9125;DHT22;4597;48.730;9.114;2023-02-28T17:58:56;3.80;63.70
9125;DHT22;4597;48.730;9.114;2023-02-28T18:01:22;3.70;65.40
9125;DHT22;4597;48.730;9.114;2023-02-28T18:03:49;3.60;66.00
9125;DHT22;4597;48.730;9.114;2023-02-28T18:06:18;3.60;66.70
9125;DHT22;4597;48.730;9.114;2023-02-28T18:08:45;3.60;68.00
9125;DHT22;4597;48.730;9.114;2023-02-28T18:11:11;3.50;67.20
9125;DHT22;4597;48.730;9.114;2023-02-28T18:13:44;3.50;67.10
9125;DHT22;4597;48.730;9.114;2023-02-28T18:16:10;3.40;68.40
9125;DHT22;4597;48.730;9.114;2023-02-28T18:18:35;3.40;69.00
9125;DHT22;4597;48.730;9.114;2023-02-28T18:21:04;3.30;70.60
9125;DHT22;4597;48.730;9.114;2023-02-28T18:23:30;3.30;70.90
9125;DHT22;4597;48.730;9.114;2023-02-28T18:25:56;3.20;70.90
9125;DHT22;4597;48.730;9.114;2023-02-28T18:28:23;3.10;72.10
9125;DHT22;4597;48.730;9.114;2023-02-28T18:30:48;3.10;73.00
9125;DHT22;4597;48.730;9.114;2023-02-28T18:33:14;3.10;73.80
9125;DHT22;4597;48.730;9.114;2023-02-28T18:35:40;3.10;73.70
9125;DHT22;4597;48.730;9.114;2023-02-28T18:38:17;3.00;74.80
9125;DHT22;4597;48.730;9.114;2023-02-28T18:40:52;3.00;75.50
9125;DHT22;4597;48.730;9.114;2023-02-28T18:43:18;3.00;76.60
9125;DHT22;4597;48.730;9.114;2023-02-28T18:45:43;3.00;77.60